Time;durP1;ratioP1;P1;durP2;ratioP2;P2;SDS_P1;SDS_P2;PMS_P1;PMS_P2;Temp;Humidity;BMP_temperature;BMP_pressure;BME280_temperature;BME280_humidity;BME280_pressure;Samples;Min_cycle;Max_cycle;Signal;HPM_P1;HPM_P2
2022/05/30 00:00:31;;;;;;;0.52;0.00;;;;;;;24.43;41.49;99864.94;5050808;28;20031;-76
2022/05/30 00:02:57;;;;;;;0.20;0.00;;;;;;;24.43;41.45;99854.28;5051526;28;20447;-73
2022/05/30 00:05:23;;;;;;;0.10;0.00;;;;;;;24.43;41.32;99845.47;5050904;28;20076;-74
2022/05/30 00:07:49;;;;;;;0.30;0.00;;;;;;;24.43;41.32;99848.16;5050015;28;20057;-76
2022/05/30 00:10:16;;;;;;;0.00;0.00;;;;;;;24.43;41.50;99846.28;5050438;28;20816;-72
2022/05/30 00:12:43;;;;;;;0.30;0.10;;;;;;;24.43;41.27;99835.63;5050379;28;20033;-77
2022/05/30 00:15:12;;;;;;;0.17;0.00;;;;;;;24.43;41.28;99832.19;5051242;28;20041;-74
2022/05/30 00:17:38;;;;;;;0.10;0.00;;;;;;;24.42;41.09;99842.03;5049551;28;20033;-72
2022/05/30 00:20:05;;;;;;;0.10;0.00;;;;;;;24.42;41.51;99835.88;5049305;28;20148;-72
2022/05/30 00:22:31;;;;;;;0.80;0.10;;;;;;;24.42;41.15;99835.88;5050157;28;20040;-75
2022/05/30 00:24:56;;;;;;;0.10;0.00;;;;;;;24.42;41.23;99846.53;5049744;28;20044;-72
2022/05/30 00:27:22;;;;;;;0.20;0.00;;;;;;;24.42;41.47;99854.53;5049829;28;20052;-74
2022/05/30 00:29:48;;;;;;;0.10;0.00;;;;;;;24.42;41.44;99846.53;5050082;28;20059;-71
2022/05/30 00:32:13;;;;;;;0.65;0.00;;;;;;;24.42;41.51;99841.22;5050612;28;20503;-74
2022/05/30 00:34:39;;;;;;;0.20;0.00;;;;;;;24.42;41.18;99836.69;5049059;28;20131;-69
2022/05/30 00:37:05;;;;;;;0.10;0.00;;;;;;;24.43;41.23;99846.28;5050087;28;20083;-72
2022/05/30 00:39:32;;;;;;;0.08;0.00;;;;;;;24.44;41.20;99833.78;5049984;28;20377;-72
2022/05/30 00:42:19;;;;;;;0.00;0.00;;;;;;;24.40;41.22;99830.00;5050078;28;20071;-69
2022/05/30 00:44:46;;;;;;;0.05;0.00;;;;;;;24.42;41.13;99831.38;5049223;28;20067;-71
2022/05/30 00:47:13;;;;;;;0.20;0.00;;;;;;;24.43;41.52;99832.19;5049501;28;20432;-74
2022/05/30 00:49:41;;;;;;;0.00;0.00;;;;;;;24.44;41.27;99825.78;5048813;28;20025;-74
2022/05/30 00:52:11;;;;;;;0.10;0.00;;;;;;;24.43;41.60;99813.53;5049817;28;20558;-68
2022/05/30 00:55:00;;;;;;;0.20;0.00;;;;;;;24.42;41.52;99806.59;5052321;28;20025;-71
2022/05/30 00:57:27;;;;;;;0.00;0.00;;;;;;;24.41;41.26;99810.31;5054144;28;20051;-68
2022/05/30 00:59:59;;;;;;;0.17;0.00;;;;;;;24.39;41.48;99815.91;5054297;28;20051;-73
2022/05/30 01:02:32;;;;;;;0.00;0.00;;;;;;;24.39;41.61;99828.41;5054483;28;20033;-70
2022/05/30 01:07:44;;;;;;;0.20;0.05;;;;;;;24.35;41.17;99832.63;5059536;28;20500;-72
2022/05/30 01:10:13;;;;;;;0.52;0.00;;;;;;;24.35;41.32;99835.28;5060022;28;20039;-77
2022/05/30 01:12:38;;;;;;;0.10;0.00;;;;;;;24.34;41.14;99834.47;5059337;28;20116;-75
2022/05/30 01:15:07;;;;;;;0.10;0.00;;;;;;;24.34;40.98;99833.66;5054730;28;20673;-72
2022/05/30 01:17:33;;;;;;;0.00;0.00;;;;;;;24.33;41.33;99832.06;5051742;28;20033;-70
2022/05/30 01:20:14;;;;;;;0.00;0.00;;;;;;;24.31;41.45;99831.50;5056293;28;20031;-73
2022/05/30 01:23:16;;;;;;;0.20;0.00;;;;;;;24.28;41.38;99834.66;5052201;28;20091;-70
2022/05/30 01:26:04;;;;;;;0.10;0.00;;;;;;;24.27;41.29;99835.72;5050487;28;20167;-75
2022/05/30 01:28:44;;;;;;;0.05;0.00;;;;;;;24.26;41.41;99836.75;5050229;28;20143;-74
2022/05/30 01:31:11;;;;;;;0.40;0.00;;;;;;;24.26;41.23;99826.13;5049867;28;20044;-75
2022/05/30 01:33:37;;;;;;;0.10;0.00;;;;;;;24.26;41.33;99815.47;5050913;28;20128;-74
2022/05/30 01:36:03;;;;;;;1.15;0.00;;;;;;;24.25;41.30;99824.47;5041789;28;20037;-79
2022/05/30 01:38:28;;;;;;;0.00;0.00;;;;;;;24.25;41.26;99827.13;5054744;28;20031;-71
2022/05/30 01:40:55;;;;;;;0.20;0.00;;;;;;;24.25;41.04;99820.00;5053820;28;20025;-72
2022/05/30 01:43:21;;;;;;;0.00;0.00;;;;;;;24.26;41.23;99820.78;5053837;28;20028;-73
2022/05/30 01:45:47;;;;;;;0.00;0.00;;;;;;;24.24;41.40;99829.00;5051465;28;20047;-69
2022/05/30 01:48:12;;;;;;;0.20;0.00;;;;;;;24.25;41.45;99833.31;5052822;28;20116;-75
2022/05/30 01:50:38;;;;;;;0.00;0.00;;;;;;;24.23;41.61;99832.72;5052284;28;20033;-77
2022/05/30 01:53:03;;;;;;;0.15;0.00;;;;;;;24.24;41.49;99844.16;5050343;28;20571;-74
2022/05/30 01:55:29;;;;;;;0.20;0.00;;;;;;;24.24;41.39;99849.50;5053243;28;20036;-72
2022/05/30 01:57:54;;;;;;;0.17;0.00;;;;;;;24.24;41.26;99833.53;5053514;28;20386;-74
2022/05/30 02:00:20;;;;;;;0.40;0.00;;;;;;;24.23;41.70;99831.91;5051743;28;20400;-77
2022/05/30 02:02:45;;;;;;;3.83;0.00;;;;;;;24.22;41.64;99847.06;5052717;28;20064;-77
2022/05/30 02:05:11;;;;;;;0.00;0.00;;;;;;;24.21;41.65;99844.66;5050717;28;20032;-69
2022/05/30 02:07:37;;;;;;;5.57;0.30;;;;;;;24.20;41.54;99835.88;5052566;28;20056;-72
2022/05/30 02:10:03;;;;;;;0.30;0.00;;;;;;;24.20;41.43;99838.53;5053411;28;20036;-76
2022/05/30 02:12:29;;;;;;;4.28;0.05;;;;;;;24.18;41.52;99824.66;5053315;28;20116;-72
2022/05/30 02:14:54;;;;;;;1.67;0.00;;;;;;;24.17;41.63;99810.56;5051594;28;20100;-70
2022/05/30 02:17:20;;;;;;;0.00;0.00;;;;;;;24.17;41.37;99805.22;5053462;28;20028;-76
2022/05/30 02:19:46;;;;;;;0.00;0.00;;;;;;;24.16;41.57;99808.94;5053484;28;20036;-76
2022/05/30 02:22:20;;;;;;;0.25;0.00;;;;;;;24.14;41.56;99803.06;5053421;28;20029;-74
2022/05/30 02:24:48;;;;;;;0.00;0.00;;;;;;;24.14;41.65;99797.75;5050466;28;20591;-75
2022/05/30 02:27:15;;;;;;;2.22;0.00;;;;;;;24.14;41.47;99803.06;5052694;28;20025;-78
2022/05/30 02:29:41;;;;;;;0.73;0.00;;;;;;;24.14;41.51;99788.97;5052547;28;20037;-71
2022/05/30 02:32:06;;;;;;;0.20;0.00;;;;;;;24.12;41.14;99775.91;5052692;28;20071;-69
2022/05/30 02:37:16;;;;;;;0.60;0.00;;;;;;;24.13;41.70;99780.16;5052138;28;20048;-72
2022/05/30 02:39:42;;;;;;;0.10;0.00;;;;;;;24.14;41.67;99775.66;5051922;28;20029;-74
2022/05/30 02:42:07;;;;;;;0.00;0.00;;;;;;;24.13;41.92;99766.88;5051974;28;20024;-72
2022/05/30 02:44:34;;;;;;;0.10;0.00;;;;;;;24.13;41.83;99758.88;5051648;28;20066;-74
2022/05/30 02:46:59;;;;;;;0.10;0.00;;;;;;;24.14;41.75;99733.06;5052674;28;20025;-76
2022/05/30 02:49:26;;;;;;;0.10;0.00;;;;;;;24.14;41.94;99723.22;5051671;28;20161;-74
2022/05/30 02:51:52;;;;;;;2.20;0.00;;;;;;;24.15;41.80;99730.16;5051911;28;20021;-72
2022/05/30 02:54:18;;;;;;;0.00;0.00;;;;;;;24.16;41.61;99730.97;5051761;28;20424;-72
2022/05/30 02:56:57;;;;;;;1.08;0.00;;;;;;;24.15;41.66;99742.66;5050867;28;20068;-71
2022/05/30 02:59:23;;;;;;;1.13;0.00;;;;;;;24.15;41.87;99735.47;5052298;28;20029;-74
2022/05/30 03:01:48;;;;;;;0.65;0.00;;;;;;;24.16;41.57;99728.31;5049640;28;20371;-75
2022/05/30 03:04:15;;;;;;;0.20;0.00;;;;;;;24.18;41.48;99723.53;5052363;28;20029;-76
2022/05/30 03:06:42;;;;;;;0.05;0.00;;;;;;;24.17;41.50;99727.25;5050564;28;20424;-72
2022/05/30 03:09:09;;;;;;;0.20;0.00;;;;;;;24.17;41.74;99729.91;5051429;28;20021;-78
2022/05/30 03:11:35;;;;;;;0.68;0.00;;;;;;;24.17;41.79;99727.25;5051785;28;20212;-72
2022/05/30 03:14:00;;;;;;;0.10;0.00;;;;;;;24.17;41.58;99733.38;5051298;28;20611;-78
2022/05/30 03:16:26;;;;;;;0.20;0.00;;;;;;;24.15;41.97;99732.81;5048583;28;20256;-69
2022/05/30 03:18:51;;;;;;;1.23;0.00;;;;;;;24.15;41.67;99730.16;5051385;28;20064;-73
2022/05/30 03:21:17;;;;;;;0.00;0.00;;;;;;;24.15;41.67;99727.50;5050528;28;20489;-69
2022/05/30 03:23:43;;;;;;;0.00;0.00;;;;;;;24.14;41.83;99717.91;5051226;28;20438;-70
2022/05/30 03:26:10;;;;;;;0.10;0.00;;;;;;;24.14;41.44;99728.56;5049692;28;20029;-67
2022/05/30 03:28:36;;;;;;;0.00;0.00;;;;;;;24.14;41.74;99739.19;5052545;28;20471;-74
2022/05/30 03:31:03;;;;;;;0.00;0.00;;;;;;;24.14;41.68;99746.38;5051806;28;20164;-77
2022/05/30 03:33:28;;;;;;;1.65;0.22;;;;;;;24.13;41.92;99748.25;5052250;28;20292;-74
2022/05/30 03:35:54;;;;;;;0.57;0.00;;;;;;;24.12;41.82;99745.81;5051431;28;20298;-77
2022/05/30 03:38:20;;;;;;;0.08;0.00;;;;;;;24.12;41.77;99753.81;5044008;28;20420;-74
2022/05/30 03:40:46;;;;;;;0.20;0.10;;;;;;;24.09;41.84;99773.78;5051750;28;20079;-74
2022/05/30 03:43:11;;;;;;;0.13;0.00;;;;;;;24.08;41.92;99782.81;5052291;28;20469;-70
2022/05/30 03:45:40;;;;;;;0.10;0.00;;;;;;;24.07;41.74;99794.50;5050310;28;20156;-73
2022/05/30 03:48:07;;;;;;;0.00;0.00;;;;;;;24.06;41.52;99790.22;5051773;28;20108;-77
2022/05/30 03:50:33;;;;;;;0.10;0.00;;;;;;;24.06;41.46;99811.53;5051693;28;20075;-74
2022/05/30 03:53:05;;;;;;;0.15;0.00;;;;;;;24.05;41.63;99809.91;5052068;28;20053;-71
2022/05/30 03:55:34;;;;;;;0.10;0.00;;;;;;;24.05;41.37;99825.88;5052528;28;20040;-77
2022/05/30 03:58:01;;;;;;;0.20;0.10;;;;;;;24.04;41.40;99826.94;5051392;28;20021;-71
2022/05/30 04:00:27;;;;;;;0.73;0.00;;;;;;;24.04;41.81;99832.25;5052410;28;20025;-75
2022/05/30 04:02:52;;;;;;;0.00;0.00;;;;;;;24.03;41.72;99843.94;5052903;28;20017;-73
2022/05/30 04:05:19;;;;;;;0.65;0.00;;;;;;;24.04;41.36;99844.75;5053099;28;20029;-75
2022/05/30 04:07:44;;;;;;;0.05;0.00;;;;;;;24.03;41.46;99851.94;5051769;28;20049;-71
2022/05/30 04:10:11;;;;;;;0.10;0.00;;;;;;;24.04;41.40;99856.19;5051221;28;20116;-69
2022/05/30 04:12:37;;;;;;;0.00;0.00;;;;;;;24.03;41.39;99859.09;5050041;28;20025;-75
2022/05/30 04:15:04;;;;;;;0.20;0.00;;;;;;;24.03;41.63;99862.56;5050617;28;20025;-71
2022/05/30 04:17:32;;;;;;;0.00;0.00;;;;;;;24.02;41.87;99870.78;5047455;28;20474;-73
2022/05/30 04:19:57;;;;;;;0.00;0.00;;;;;;;24.01;41.42;99862.00;5047203;28;20037;-73
2022/05/30 04:22:23;;;;;;;0.00;0.00;;;;;;;24.01;41.22;99867.34;5048053;28;20044;-69
2022/05/30 04:24:48;;;;;;;0.08;0.00;;;;;;;23.99;41.42;99872.09;5046399;28;20053;-73
2022/05/30 04:27:14;;;;;;;0.00;0.00;;;;;;;23.99;41.20;99880.06;5056799;28;20033;-70
2022/05/30 04:29:39;;;;;;;1.27;0.00;;;;;;;23.99;41.57;99880.06;5069517;28;20028;-68
2022/05/30 04:32:06;;;;;;;0.15;0.00;;;;;;;23.97;41.49;99879.50;5057289;28;20049;-73
2022/05/30 04:34:32;;;;;;;0.90;0.00;;;;;;;23.96;41.85;99880.56;5030187;28;20388;-74
2022/05/30 04:36:58;;;;;;;1.40;0.00;;;;;;;24.02;42.17;99879.59;5047913;28;20032;-70
2022/05/30 04:39:23;;;;;;;1.48;0.10;;;;;;;24.08;42.99;99880.47;5047382;28;20028;-69
2022/05/30 04:41:49;;;;;;;1.48;0.20;;;;;;;24.09;42.80;99892.72;5048978;28;20036;-73
2022/05/30 04:44:14;;;;;;;5.97;0.20;;;;;;;24.05;43.17;99891.59;5045908;28;20097;-72
2022/05/30 04:46:40;;;;;;;0.88;0.03;;;;;;;24.04;42.76;99892.66;5045950;28;20487;-74
2022/05/30 04:49:05;;;;;;;3.92;0.30;;;;;;;24.00;42.85;99889.66;5046805;28;20032;-72
2022/05/30 04:51:30;;;;;;;2.95;0.10;;;;;;;23.99;42.66;99890.72;5047570;28;20181;-72
2022/05/30 04:53:56;;;;;;;9.77;0.43;;;;;;;23.99;42.87;99895.22;5047605;28;20410;-71
2022/05/30 04:56:21;;;;;;;4.82;0.10;;;;;;;23.96;42.81;99893.88;5042140;28;20031;-74
2022/05/30 04:58:48;;;;;;;4.53;0.10;;;;;;;23.96;42.84;99901.84;5044952;28;20025;-70
2022/05/30 05:01:14;;;;;;;4.35;0.00;;;;;;;23.96;42.63;99891.22;5044895;28;20124;-73
2022/05/30 05:03:41;;;;;;;5.60;0.10;;;;;;;23.95;42.52;99894.91;5045528;28;20116;-76
2022/05/30 05:06:16;;;;;;;2.05;0.10;;;;;;;23.96;42.23;99891.22;5049025;28;20049;-73
2022/05/30 05:08:50;;;;;;;2.77;0.37;;;;;;;23.94;42.51;99893.31;5048038;28;20025;-73
2022/05/30 05:11:19;;;;;;;1.02;0.10;;;;;;;23.96;42.28;99898.38;5050559;28;20029;-68
2022/05/30 05:13:45;;;;;;;3.10;0.10;;;;;;;23.96;42.17;99896.53;5051710;28;20735;-71
2022/05/30 05:16:11;;;;;;;1.40;0.00;;;;;;;23.97;41.99;99890.16;5049875;28;20108;-73
2022/05/30 05:18:36;;;;;;;0.57;0.00;;;;;;;24.00;41.86;99896.84;5051134;28;20025;-72
2022/05/30 05:21:02;;;;;;;0.43;0.00;;;;;;;24.00;41.97;99907.50;5050925;28;20040;-70
2022/05/30 05:23:27;;;;;;;0.55;0.00;;;;;;;24.00;41.98;99908.28;5051653;28;20384;-72
2022/05/30 05:25:53;;;;;;;2.45;0.00;;;;;;;24.00;42.06;99908.28;5050750;28;20029;-72
2022/05/30 05:28:19;;;;;;;1.58;0.00;;;;;;;23.99;41.81;99904.03;5051627;28;20033;-72
2022/05/30 05:30:44;;;;;;;0.52;0.10;;;;;;;24.00;42.14;99910.94;5051099;28;20025;-76
2022/05/30 05:33:11;;;;;;;0.28;0.00;;;;;;;24.00;41.75;99910.94;5051609;28;20029;-72
2022/05/30 05:35:42;;;;;;;0.90;0.05;;;;;;;23.99;41.92;99917.31;5050206;28;20033;-74
2022/05/30 05:38:09;;;;;;;1.20;0.00;;;;;;;23.99;41.96;99922.66;5051098;28;20032;-73
2022/05/30 05:40:41;;;;;;;0.60;0.10;;;;;;;23.98;41.97;99934.34;5051459;28;20229;-74
2022/05/30 05:43:08;;;;;;;0.43;0.00;;;;;;;23.98;41.72;99937.00;5051041;28;20051;-70
2022/05/30 05:45:37;;;;;;;2.42;0.10;;;;;;;23.98;41.83;99930.88;5049448;28;20126;-72
2022/05/30 05:48:03;;;;;;;4.20;0.00;;;;;;;23.98;41.96;99930.88;5050651;28;20465;-74
2022/05/30 05:50:29;;;;;;;0.10;0.00;;;;;;;23.98;41.78;99936.19;5049947;28;20036;-70
2022/05/30 05:52:54;;;;;;;0.52;0.08;;;;;;;23.96;41.56;99925.78;5050736;28;20068;-70
2022/05/30 05:55:21;;;;;;;0.30;0.00;;;;;;;23.97;41.75;99930.06;5050843;28;20215;-74
2022/05/30 05:57:47;;;;;;;0.35;0.00;;;;;;;23.96;41.68;99933.78;5048852;28;20078;-74
2022/05/30 06:00:13;;;;;;;0.25;0.00;;;;;;;23.96;41.52;99932.97;5050644;28;20059;-71
2022/05/30 06:02:39;;;;;;;0.20;0.00;;;;;;;23.95;41.72;99936.69;5050671;28;20118;-73
2022/05/30 06:05:05;;;;;;;0.93;0.00;;;;;;;23.95;41.83;99937.47;5035689;28;20037;-70
2022/05/30 06:07:36;;;;;;;0.63;0.00;;;;;;;23.92;41.92;99937.97;5037498;28;20698;-72
2022/05/30 06:10:02;;;;;;;3.05;0.00;;;;;;;23.92;41.64;99937.16;5046174;28;20033;-72
2022/05/30 06:12:27;;;;;;;0.47;0.00;;;;;;;23.90;41.95;99934.75;5052484;28;20066;-70
2022/05/30 06:14:53;;;;;;;0.47;0.10;;;;;;;23.90;42.37;99932.09;5071614;28;20074;-69
2022/05/30 06:17:18;;;;;;;0.20;0.00;;;;;;;23.91;42.32;99933.69;5053496;28;20439;-70
2022/05/30 06:19:46;;;;;;;1.70;0.10;;;;;;;23.92;42.63;99937.16;5051219;28;20028;-75
2022/05/30 06:22:11;;;;;;;6.40;0.22;;;;;;;23.94;43.07;99938.53;5049876;28;20049;-74
2022/05/30 06:24:37;;;;;;;2.28;0.10;;;;;;;23.98;43.57;99937.00;5051430;28;20104;-69
2022/05/30 06:27:04;;;;;;;3.15;0.08;;;;;;;23.98;43.27;99941.50;5048642;28;20033;-71
2022/05/30 06:29:29;;;;;;;3.20;0.00;;;;;;;23.96;43.52;99935.63;5052266;28;20437;-72
2022/05/30 06:31:55;;;;;;;0.88;0.00;;;;;;;23.96;43.62;99938.28;5051985;28;20055;-71
2022/05/30 06:34:20;;;;;;;0.10;0.00;;;;;;;23.95;43.38;99940.16;5052752;28;20544;-69
2022/05/30 06:36:46;;;;;;;0.75;0.20;;;;;;;23.95;43.32;99944.66;5051100;28;20037;-73
2022/05/30 06:39:12;;;;;;;0.50;0.00;;;;;;;23.94;43.11;99941.19;5051831;28;20105;-75
2022/05/30 06:41:37;;;;;;;0.47;0.00;;;;;;;23.94;43.19;99949.19;5052489;28;20025;-72
2022/05/30 06:44:06;;;;;;;1.92;0.00;;;;;;;23.93;43.35;99955.53;5052873;28;20370;-71
2022/05/30 06:46:36;;;;;;;5.05;0.10;;;;;;;23.94;43.33;99953.69;5049873;28;20036;-73
2022/05/30 06:49:04;;;;;;;1.63;0.05;;;;;;;23.91;42.89;99949.66;5052870;28;20064;-71
2022/05/30 06:51:31;;;;;;;3.75;0.00;;;;;;;23.91;42.98;99956.84;5050299;28;20080;-80
2022/05/30 06:53:57;;;;;;;3.10;0.00;;;;;;;23.90;42.67;99956.03;5052175;28;20031;-75
2022/05/30 06:56:26;;;;;;;0.30;0.00;;;;;;;23.89;42.61;99954.41;5041723;28;20033;-69
2022/05/30 06:58:53;;;;;;;0.75;0.00;;;;;;;23.90;42.61;99955.22;5049441;28;20109;-72
2022/05/30 07:01:24;;;;;;;0.32;0.00;;;;;;;23.89;42.65;99958.94;5050762;28;20036;-71
2022/05/30 07:03:50;;;;;;;1.55;0.03;;;;;;;23.86;42.18;99954.91;5051629;28;20033;-72
2022/05/30 07:06:21;;;;;;;0.85;0.10;;;;;;;23.86;42.06;99959.41;5051283;28;20071;-73
2022/05/30 07:08:47;;;;;;;1.55;0.10;;;;;;;23.85;41.96;99969.25;5051953;28;20032;-75
2022/05/30 07:11:14;;;;;;;1.20;0.00;;;;;;;23.85;42.12;99982.56;5051527;28;20029;-73
2022/05/30 07:13:41;;;;;;;1.05;0.00;;;;;;;23.83;41.80;99982.00;5050861;28;20025;-73
2022/05/30 07:16:08;;;;;;;2.00;0.00;;;;;;;23.84;41.36;99996.91;5049951;28;20024;-69
2022/05/30 07:18:34;;;;;;;1.02;0.00;;;;;;;23.83;41.51;99992.63;5047992;28;20518;-69
2022/05/30 07:21:03;;;;;;;2.20;0.00;;;;;;;23.80;41.25;99977.16;5048697;28;20056;-71
2022/05/30 07:23:30;;;;;;;0.70;0.00;;;;;;;23.79;41.56;99976.34;5047943;28;20033;-72
2022/05/30 07:26:01;;;;;;;2.67;0.08;;;;;;;23.80;41.44;99993.13;5049974;28;20037;-74
2022/05/30 07:28:31;;;;;;;2.35;0.05;;;;;;;23.80;42.68;99990.47;5051189;28;20248;-73
2022/05/30 07:31:04;;;;;;;6.45;0.35;;;;;;;23.79;43.51;99987.00;5051264;28;20033;-69
2022/05/30 07:33:30;;;;;;;7.88;0.20;;;;;;;23.79;43.44;99978.19;5038579;28;20449;-75
2022/05/30 07:35:56;;;;;;;6.10;0.10;;;;;;;23.80;42.81;99977.16;5049540;28;20164;-74
2022/05/30 07:38:21;;;;;;;1.65;0.00;;;;;;;23.80;41.95;99987.81;5051232;28;20056;-76
2022/05/30 07:40:47;;;;;;;2.25;0.10;;;;;;;23.78;41.24;99973.94;5052070;28;20029;-74
2022/05/30 07:43:14;;;;;;;3.88;0.15;;;;;;;23.80;41.30;99971.84;5050479;28;20035;-70
2022/05/30 07:45:39;;;;;;;2.47;0.10;;;;;;;23.80;41.42;99974.50;5049461;28;20417;-76
2022/05/30 07:48:05;;;;;;;2.85;0.00;;;;;;;23.80;41.66;99969.19;5049966;28;20063;-73
2022/05/30 07:50:31;;;;;;;2.47;0.00;;;;;;;23.78;41.98;99979.25;5038476;28;20029;-71
2022/05/30 07:52:56;;;;;;;0.10;0.00;;;;;;;23.76;41.60;99968.06;5050634;28;20032;-74
2022/05/30 07:55:21;;;;;;;13.35;0.50;;;;;;;23.75;40.52;99971.75;5048923;28;20361;-72
2022/05/30 07:57:53;;;;;;;2.97;0.10;;;;;;;23.74;40.19;99970.16;5050232;28;20032;-71
2022/05/30 08:00:21;;;;;;;2.83;0.00;;;;;;;23.73;40.17;99963.22;5051556;28;20032;-71
2022/05/30 08:02:47;;;;;;;2.70;0.03;;;;;;;23.75;39.90;99958.47;5051103;28;20389;-76
2022/05/30 08:05:13;;;;;;;1.30;0.00;;;;;;;23.74;39.60;99957.66;5050598;28;20029;-77
2022/05/30 08:07:41;;;;;;;1.08;0.00;;;;;;;23.74;39.09;99967.47;5049075;28;20041;-71
2022/05/30 08:10:07;;;;;;;0.65;0.00;;;;;;;23.72;39.19;99961.59;5051127;28;20294;-74
2022/05/30 08:12:33;;;;;;;0.85;0.00;;;;;;;23.72;39.12;99964.25;5051274;28;20471;-74
2022/05/30 08:14:59;;;;;;;0.88;0.00;;;;;;;23.69;39.30;99957.56;5051408;28;20051;-74
2022/05/30 08:20:01;;;;;;;0.40;0.00;;;;;;;23.67;39.05;99966.84;5932630;22;20048;-78
2022/05/30 08:22:27;;;;;;;2.38;0.00;;;;;;;23.66;38.92;99975.88;5064771;28;20062;-78
2022/05/30 08:24:53;;;;;;;0.08;0.00;;;;;;;23.64;38.65;99980.63;5071360;28;20090;-71
2022/05/30 08:27:20;;;;;;;0.00;0.00;;;;;;;23.62;38.78;99980.09;5072392;28;20059;-73
2022/05/30 08:29:46;;;;;;;0.52;0.00;;;;;;;23.61;38.48;99983.78;5071626;28;20017;-73
2022/05/30 08:32:12;;;;;;;0.10;0.00;;;;;;;23.61;39.18;99989.09;5070123;28;20028;-74
2022/05/30 08:34:39;;;;;;;0.13;0.00;;;;;;;23.61;38.57;99989.09;5070169;28;20036;-69
2022/05/30 08:37:06;;;;;;;0.60;0.00;;;;;;;23.59;38.71;99993.84;5070058;28;20145;-76
2022/05/30 08:42:25;;;;;;;0.00;0.00;;;;;;;23.58;38.75;100005.53;5072243;28;20050;-71
2022/05/30 08:44:51;;;;;;;0.75;0.00;;;;;;;23.57;38.65;100003.94;5069417;28;20029;-77
2022/05/30 08:47:42;;;;;;;1.40;0.00;;;;;;;23.55;38.71;100008.69;5075193;28;20116;-72
2022/05/30 08:50:22;;;;;;;0.30;0.10;;;;;;;23.54;38.76;100010.53;5075028;28;20480;-71
2022/05/30 08:53:12;;;;;;;0.50;0.00;;;;;;;23.56;38.72;100015.59;5056805;28;20161;-72
2022/05/30 08:55:43;;;;;;;0.50;0.03;;;;;;;23.58;38.78;100006.34;5056450;28;20344;-73
2022/05/30 08:58:30;;;;;;;0.30;0.10;;;;;;;23.58;38.97;100006.34;5061562;28;20452;-74
2022/05/30 09:01:04;;;;;;;0.63;0.00;;;;;;;23.59;38.99;99999.19;5075994;28;20032;-75
2022/05/30 09:03:43;;;;;;;0.28;0.00;;;;;;;23.57;38.97;99991.44;5076835;28;20033;-78
2022/05/30 09:06:19;;;;;;;0.17;0.00;;;;;;;23.58;39.07;99989.59;5076018;28;20110;-72
2022/05/30 09:08:55;;;;;;;0.10;0.00;;;;;;;23.57;39.08;99990.63;5075161;28;20036;-75
2022/05/30 09:11:30;;;;;;;0.25;0.00;;;;;;;23.56;38.99;99987.16;5077463;28;20052;-75
2022/05/30 09:14:00;;;;;;;0.10;0.00;;;;;;;23.57;39.20;99983.47;5077761;28;20036;-71
2022/05/30 09:16:28;;;;;;;0.55;0.00;;;;;;;23.57;39.08;99988.78;5077319;28;20373;-70
2022/05/30 09:18:56;;;;;;;0.85;0.00;;;;;;;23.56;38.97;99986.38;5074022;28;20064;-75
2022/05/30 09:21:23;;;;;;;0.10;0.00;;;;;;;23.56;38.82;99991.69;5076772;28;20524;-71
2022/05/30 09:23:49;;;;;;;0.20;0.00;;;;;;;23.55;38.52;99993.53;5078643;28;20132;-72
2022/05/30 09:26:33;;;;;;;0.05;0.00;;;;;;;23.53;38.77;99997.44;5078145;28;20028;-72
2022/05/30 09:29:10;;;;;;;0.88;0.28;;;;;;;23.52;38.49;99991.31;5076701;28;20047;-74
2022/05/30 09:31:39;;;;;;;1.20;0.00;;;;;;;23.53;38.85;99997.44;5057693;28;20082;-73
2022/05/30 09:34:32;;;;;;;0.17;0.00;;;;;;;23.51;38.72;99995.03;5057096;28;20041;-74
2022/05/30 09:36:58;;;;;;;0.35;0.00;;;;;;;23.52;38.51;99995.84;5063080;28;20027;-78
2022/05/30 09:39:24;;;;;;;1.17;0.00;;;;;;;23.51;38.63;100005.66;5074636;28;20090;-73
2022/05/30 09:41:55;;;;;;;0.10;0.00;;;;;;;23.50;38.61;100010.16;5075630;28;20058;-72
2022/05/30 09:44:25;;;;;;;0.10;0.00;;;;;;;23.50;38.80;100007.50;5075191;28;20119;-75
2022/05/30 09:46:53;;;;;;;0.10;0.00;;;;;;;23.50;38.38;99994.22;5074071;28;20016;-72
2022/05/30 09:49:26;;;;;;;0.98;0.00;;;;;;;23.50;38.33;99993.41;5076109;28;20044;-71
2022/05/30 09:51:55;;;;;;;0.10;0.00;;;;;;;23.52;38.40;100001.16;5075294;28;20041;-73
2022/05/30 09:54:23;;;;;;;0.85;0.00;;;;;;;23.52;38.75;99998.50;5076341;28;20239;-73
2022/05/30 09:56:51;;;;;;;0.20;0.00;;;;;;;23.53;38.31;99997.44;5073791;28;20474;-73
2022/05/30 09:59:38;;;;;;;0.10;0.00;;;;;;;23.50;38.40;100002.19;5071884;28;20183;-72
2022/05/30 10:02:19;;;;;;;0.10;0.00;;;;;;;23.49;38.55;100005.09;5072708;28;20032;-75
2022/05/30 10:04:44;;;;;;;0.00;0.00;;;;;;;23.50;38.69;100004.06;5072517;28;20505;-74
2022/05/30 10:07:16;;;;;;;0.65;0.00;;;;;;;23.52;38.54;100009.94;5070983;28;20290;-75
2022/05/30 10:10:19;;;;;;;0.10;0.00;;;;;;;23.47;38.63;100000.00;5071156;28;20025;-70
2022/05/30 10:12:57;;;;;;;0.40;0.00;;;;;;;23.47;38.28;100002.69;5072338;28;20518;-74
2022/05/30 10:15:23;;;;;;;1.38;0.00;;;;;;;23.50;38.42;100004.84;5092448;28;20432;-72
2022/05/30 10:17:49;;;;;;;0.05;0.00;;;;;;;23.52;38.82;100001.97;5093153;28;20143;-73
2022/05/30 10:20:23;;;;;;;0.00;0.00;;;;;;;23.53;38.72;100013.41;5090751;28;20422;-74
2022/05/30 10:29:46;;;;;;;0.20;0.00;;;;;;;23.50;39.30;100010.16;5055685;28;20065;-74
2022/05/30 10:42:42;;;;;;;1.55;0.00;;;;;;;23.55;39.85;100025.44;5693092;22;20524;-75
2022/05/30 10:45:18;;;;;;;0.03;0.00;;;;;;;23.56;39.68;100023.59;5065956;28;20036;-75
2022/05/30 10:47:45;;;;;;;0.90;0.00;;;;;;;23.54;40.11;100023.81;5073385;28;20024;-74
2022/05/30 10:50:22;;;;;;;0.00;0.00;;;;;;;23.52;39.76;100023.22;5069650;28;20235;-73
2022/05/30 10:53:00;;;;;;;0.77;0.00;;;;;;;23.53;39.61;100022.22;5068390;28;20036;-74
2022/05/30 10:55:33;;;;;;;94.80;64.88;;;;;;;23.66;40.85;100023.72;5069485;28;20040;-76
2022/05/30 10:58:01;;;;;;;76.00;68.00;;;;;;;23.81;41.22;100026.66;5071056;28;20028;-69
2022/05/30 11:00:33;;;;;;;341.67;309.80;;;;;;;23.99;41.88;100022.94;5072437;28;20029;-70
2022/05/30 11:03:17;;;;;;;189.60;171.20;;;;;;;24.13;41.42;100025.00;5072387;28;20048;-72
2022/05/30 11:06:07;;;;;;;108.82;85.55;;;;;;;24.29;42.33;100026.06;5070532;28;20032;-70
2022/05/30 11:09:13;;;;;;;45.83;41.10;;;;;;;24.46;48.42;100031.38;5065200;28;20390;-75
2022/05/30 11:12:20;;;;;;;33.50;30.15;;;;;;;24.66;51.16;100028.94;5071531;28;20058;-72
2022/05/30 11:14:57;;;;;;;38.33;34.30;;;;;;;24.82;51.33;100037.94;5066460;28;20435;-73
2022/05/30 11:17:41;;;;;;;37.00;33.08;;;;;;;24.96;54.72;100038.41;5066224;28;20037;-73
2022/05/30 11:20:16;;;;;;;38.55;31.58;;;;;;;25.07;54.15;100042.78;5067555;28;20078;-70
2022/05/30 11:22:46;;;;;;;32.40;29.05;;;;;;;25.14;51.52;100051.38;5060480;28;20032;-73
2022/05/30 11:25:15;;;;;;;30.00;27.00;;;;;;;25.04;49.48;100045.97;5067493;28;20119;-73
2022/05/30 11:28:14;;;;;;;29.33;26.35;;;;;;;24.83;47.02;100046.75;5062770;28;20099;-71
2022/05/30 11:30:49;;;;;;;24.88;21.80;;;;;;;24.67;45.84;100046.53;5063619;28;20036;-72
2022/05/30 11:33:17;;;;;;;24.63;22.02;;;;;;;24.56;44.56;100036.84;5068092;28;20036;-72
2022/05/30 11:36:03;;;;;;;24.20;21.25;;;;;;;24.50;44.28;100043.16;5071951;28;20071;-71
2022/05/30 11:38:40;;;;;;;19.83;17.73;;;;;;;24.42;44.11;100043.56;5070499;28;20036;-75
2022/05/30 11:41:23;;;;;;;20.23;17.83;;;;;;;24.36;43.78;100049.88;5072813;28;20074;-72
2022/05/30 11:44:04;;;;;;;20.17;16.17;;;;;;;24.33;43.94;100056.47;5064300;28;20047;-72
2022/05/30 11:46:57;;;;;;;15.20;13.60;;;;;;;24.30;43.59;100053.50;5069789;28;20086;-69
2022/05/30 11:49:42;;;;;;;18.70;15.23;;;;;;;24.29;43.63;100054.53;5077152;28;20028;-73
2022/05/30 11:52:50;;;;;;;14.55;12.88;;;;;;;24.23;43.90;100055.50;5066328;28;20024;-72
2022/05/30 11:55:56;;;;;;;9.00;6.38;;;;;;;24.16;42.32;100072.44;5070240;28;20032;-78
2022/05/30 11:59:03;;;;;;;8.87;5.13;;;;;;;24.13;41.91;100072.09;5037247;28;20107;-73
2022/05/30 12:01:30;;;;;;;4.00;3.58;;;;;;;24.08;41.86;100070.19;5053976;28;20047;-73
2022/05/30 12:03:58;;;;;;;6.90;3.13;;;;;;;24.03;41.59;100064.00;5072518;28;20119;-72
2022/05/30 12:06:51;;;;;;;2.63;1.90;;;;;;;24.00;41.19;100067.13;5069239;28;20040;-73
2022/05/30 12:09:47;;;;;;;1.33;1.10;;;;;;;23.99;40.80;100063.66;5064878;28;20044;-71